CheckWX is a tool to help pilots better visualize weather data.  It is not intended as a substitute for an official pre-flight weather briefing.

21:19:06 UTC

KJAX TAF
Jacksonville International Airport
Jacksonville, Florida, USA
KJAX 032357Z 0400/0424 15006KT P6SM VCSH FEW030 BKN150 OVC250 FM040500 18003KT P6SM -SHRA SCT030 BKN090 OVC200 PROB30 0409/0413 3SM +SHRA BR BKN025 OVC070 FM041400 19006KT P6SM VCSH BKN025 BKN050 OVC090

Jun-4@
00:00 UTC

Jun-4 @ 00:00 UTC

Jun-4@
05:00 UTC

Jun-4 @ 05:00 UTC

TAF KJAX 032357Z 0400/0424 15006KT P6SM VCSH FEW030 BKN150 OVC250

Expired

Wind
  • 150° at 6 KTS
Conditions
Area Showers
Cloud Levels
  • Few at 3,000' AGL
  • Broken at 15,000' AGL
  • Overcast at 25,000' AGL

Jun-4@
05:00 UTC

Jun-4 @ 05:00 UTC

Jun-4@
14:00 UTC

Jun-4 @ 14:00 UTC

FM040500 18003KT P6SM -SHRA SCT030 BKN090 OVC200

Expired

Wind
  • 180° at 3 KTS
Conditions
Light Showers, Rain
Cloud Levels
  • Scattered at 3,000' AGL
  • Broken at 9,000' AGL
  • Overcast at 20,000' AGL

Jun-4@
09:00 UTC

Jun-4 @ 09:00 UTC

Jun-4@
13:00 UTC

Jun-4 @ 13:00 UTC

PROB30 0409/0413 3SM +SHRA BR BKN025 OVC070

Expired

Conditions
Heavy Showers, Rain, Mist
Cloud Levels
  • Broken at 2,500' AGL
  • Overcast at 7,000' AGL

Jun-4@
14:00 UTC

Jun-4 @ 14:00 UTC

Jun-5@
00:00 UTC

Jun-5 @ 00:00 UTC

FM041400 19006KT P6SM VCSH BKN025 BKN050 OVC090

From

From Standard forecast or significant change

Wind
  • 190° at 6 KTS
Conditions
Area Showers
Cloud Levels
  • Broken at 2,500' AGL
  • Broken at 5,000' AGL
  • Overcast at 9,000' AGL